createdAt,value
2023-04-12T00:00:11.581Z,10.40
2023-04-12T00:05:05.136Z,10.65
2023-04-12T00:09:58.494Z,10.64
2023-04-12T00:14:51.830Z,9.74
2023-04-12T00:19:47.739Z,10.22
2023-04-12T00:24:42.171Z,10.61
2023-04-12T00:29:35.880Z,10.45
2023-04-12T00:34:29.275Z,10.52
2023-04-12T00:39:24.070Z,10.61
2023-04-12T00:44:18.195Z,10.61
2023-04-12T00:49:12.462Z,10.61
2023-04-12T00:54:05.833Z,10.21
2023-04-12T00:59:00.571Z,10.46
2023-04-12T01:04:01.336Z,10.17
2023-04-12T01:09:11.498Z,10.67
2023-04-12T01:14:12.930Z,9.42
2023-04-12T01:19:21.038Z,10.52
2023-04-12T01:24:29.106Z,10.31
2023-04-12T01:29:26.388Z,9.89
2023-04-12T01:34:21.771Z,10.21
2023-04-12T01:39:15.393Z,10.51
2023-04-12T01:44:08.643Z,10.50
2023-04-12T01:49:03.329Z,10.70
2023-04-12T01:54:00.351Z,10.70
2023-04-12T01:58:55.311Z,10.49
2023-04-12T02:03:50.964Z,10.05
2023-04-12T02:08:46.971Z,10.33
2023-04-12T02:13:40.158Z,10.22
2023-04-12T02:18:36.035Z,10.55
2023-04-12T02:23:29.778Z,10.52
2023-04-12T02:28:24.485Z,10.63
2023-04-12T02:33:17.676Z,9.93
2023-04-12T02:38:11.612Z,10.57
2023-04-12T02:43:07.321Z,10.57
2023-04-12T02:48:05.112Z,10.37
2023-04-12T02:52:58.856Z,10.53
2023-04-12T02:57:52.323Z,9.81
2023-04-12T03:02:46.202Z,10.47
2023-04-12T03:07:49.087Z,10.47
2023-04-12T03:12:46.293Z,10.47
2023-04-12T03:17:43.085Z,10.19
2023-04-12T03:22:38.344Z,10.34
2023-04-12T03:27:36.937Z,10.42
2023-04-12T03:32:30.451Z,10.22
2023-04-12T03:37:26.308Z,10.38
2023-04-12T03:42:33.124Z,10.20
2023-04-12T03:47:38.270Z,9.89
2023-04-12T03:52:31.622Z,10.16
2023-04-12T03:57:25.443Z,9.73
2023-04-12T04:02:19.037Z,10.23
2023-04-12T04:07:17.032Z,9.39
2023-04-12T04:12:12.602Z,9.93
2023-04-12T04:17:11.139Z,10.32
2023-04-12T04:22:05.460Z,9.93
2023-04-12T04:27:02.941Z,10.32
2023-04-12T04:31:57.705Z,10.01
2023-04-12T04:36:51.802Z,10.34
2023-04-12T04:41:55.167Z,10.35
2023-04-12T04:47:02.517Z,10.37
2023-04-12T04:51:55.988Z,10.38
2023-04-12T04:56:49.354Z,10.00
2023-04-12T05:01:44.676Z,10.40
2023-04-12T05:06:39.496Z,9.96
2023-04-12T05:11:36.058Z,10.44
2023-04-12T05:16:33.569Z,10.42
2023-04-12T05:21:27.375Z,10.27
2023-04-12T05:26:22.532Z,10.45
2023-04-12T05:31:18.221Z,10.46
2023-04-12T05:36:12.237Z,10.46
2023-04-12T05:41:05.887Z,10.49
2023-04-12T05:46:01.836Z,10.48
2023-04-12T05:50:55.940Z,10.33
2023-04-12T05:55:49.714Z,10.39
2023-04-12T06:00:45.475Z,10.53
2023-04-12T06:05:40.273Z,10.50
2023-04-12T06:10:34.061Z,10.54
2023-04-12T06:15:32.218Z,10.30
2023-04-12T06:20:25.713Z,10.37
2023-04-12T06:25:21.425Z,10.15
2023-04-12T06:30:14.920Z,10.51
2023-04-12T06:35:17.133Z,10.51
2023-04-12T06:40:12.594Z,10.29
2023-04-12T06:45:08.503Z,10.48
2023-04-12T06:50:01.555Z,10.48
2023-04-12T06:54:54.891Z,10.52
2023-04-12T06:59:48.055Z,10.58
2023-04-12T07:04:42.625Z,10.49
2023-04-12T07:09:38.617Z,10.69
2023-04-12T07:14:32.043Z,10.61
2023-04-12T07:19:25.254Z,10.85
2023-04-12T07:24:19.747Z,10.95
2023-04-12T07:29:12.836Z,10.90
2023-04-12T07:34:06.240Z,11.10
2023-04-12T07:39:02.185Z,10.95
2023-04-12T07:43:56.662Z,11.30
2023-04-12T07:48:49.772Z,11.26
2023-04-12T07:53:42.875Z,11.01
2023-04-12T07:58:36.123Z,11.30
2023-04-12T08:03:31.555Z,11.30
2023-04-12T08:08:24.715Z,11.41
2023-04-12T08:13:17.772Z,11.31
2023-04-12T08:18:11.274Z,11.62
2023-04-12T08:23:05.865Z,11.81
2023-04-12T08:27:59.009Z,11.68
2023-04-12T08:32:52.046Z,11.74
2023-04-12T08:37:50.005Z,11.73
2023-04-12T08:42:44.887Z,11.73
2023-04-12T08:47:40.040Z,11.78
2023-04-12T08:52:35.807Z,11.63
2023-04-12T08:57:31.570Z,11.82
2023-04-12T09:02:26.491Z,11.91
2023-04-12T09:07:23.530Z,11.89
2023-04-12T09:12:24.106Z,12.13
2023-04-12T09:17:24.910Z,11.50
2023-04-12T09:22:19.496Z,12.33
2023-04-12T09:27:12.617Z,12.19
2023-04-12T09:32:07.334Z,12.46
2023-04-12T09:37:00.777Z,12.56
2023-04-12T09:42:05.627Z,12.56
2023-04-12T09:47:02.598Z,11.92
2023-04-12T09:51:57.005Z,12.60
2023-04-12T09:56:52.743Z,12.61
2023-04-12T10:01:50.627Z,12.84
2023-04-12T10:06:44.058Z,12.96
2023-04-12T10:11:41.859Z,12.93
2023-04-12T10:16:35.878Z,13.18
2023-04-12T10:21:31.280Z,13.28
2023-04-12T10:26:24.743Z,13.36
2023-04-12T10:31:31.362Z,13.30
2023-04-12T10:37:00.040Z,13.42
2023-04-12T10:42:22.814Z,13.52
2023-04-12T10:47:16.345Z,13.57
2023-04-12T10:52:15.697Z,13.71
2023-04-12T10:57:09.083Z,13.58
2023-04-12T11:02:16.694Z,13.73
2023-04-12T11:07:17.449Z,13.39
2023-04-12T11:12:29.414Z,13.45
2023-04-12T11:17:27.704Z,13.42
2023-04-12T11:22:24.877Z,13.34
2023-04-12T11:27:19.956Z,12.21
2023-04-12T11:32:14.667Z,13.26
2023-04-12T11:37:10.577Z,13.32
2023-04-12T11:42:04.889Z,13.05
2023-04-12T11:46:58.678Z,13.26
2023-04-12T11:52:03.305Z,12.90
2023-04-12T11:56:58.683Z,13.17
2023-04-12T12:01:52.977Z,12.93
2023-04-12T12:06:46.954Z,13.09
2023-04-12T12:11:42.864Z,13.38
2023-04-12T12:16:41.416Z,13.42
2023-04-12T12:21:34.774Z,13.39
2023-04-12T12:26:29.306Z,13.34
2023-04-12T12:31:24.769Z,13.45
2023-04-12T12:36:21.088Z,13.46
2023-04-12T12:41:18.855Z,13.52
2023-04-12T12:46:12.376Z,13.53
2023-04-12T12:51:06.374Z,13.63
2023-04-12T12:56:01.088Z,12.90
2023-04-12T13:00:54.267Z,13.76
2023-04-12T13:05:47.819Z,13.84
2023-04-12T13:10:41.774Z,13.89
2023-04-12T13:15:45.533Z,13.93
2023-04-12T13:20:40.089Z,13.47
2023-04-12T13:25:33.815Z,14.11
2023-04-12T13:30:26.995Z,13.78
2023-04-12T13:35:21.902Z,14.28
2023-04-12T13:40:15.366Z,14.23
2023-04-12T13:45:11.384Z,13.57
2023-04-12T13:50:06.992Z,14.08
2023-04-12T13:55:02.076Z,13.59
2023-04-12T13:59:58.457Z,13.48
2023-04-12T14:04:53.389Z,13.51
2023-04-12T14:09:48.947Z,13.94
2023-04-12T14:14:44.441Z,13.99
2023-04-12T14:19:37.781Z,13.96
2023-04-12T14:24:31.489Z,13.74
2023-04-12T14:29:24.940Z,13.34
2023-04-12T14:34:22.808Z,14.13
2023-04-12T14:39:16.558Z,14.40
2023-04-12T14:44:09.965Z,15.26
2023-04-12T14:49:03.103Z,16.63
2023-04-12T14:54:00.309Z,16.92
2023-04-12T14:58:55.280Z,16.92
2023-04-12T15:03:48.920Z,16.52
2023-04-12T15:08:49.707Z,15.82
2023-04-12T15:13:44.565Z,15.54
2023-04-12T15:18:39.455Z,15.19
2023-04-12T15:23:35.842Z,14.98
2023-04-12T15:28:29.261Z,15.11
2023-04-12T15:33:23.874Z,14.70
2023-04-12T15:38:21.921Z,14.93
2023-04-12T15:43:16.551Z,14.83
2023-04-12T15:48:09.680Z,14.76
2023-04-12T15:53:04.346Z,14.73
2023-04-12T15:57:57.540Z,14.71
2023-04-12T16:02:54.950Z,14.70
2023-04-12T16:07:51.109Z,14.59
2023-04-12T16:12:48.547Z,14.57
2023-04-12T16:17:41.697Z,14.58
2023-04-12T16:22:34.908Z,14.47
2023-04-12T16:27:29.610Z,14.79
2023-04-12T16:32:24.232Z,14.09
2023-04-12T16:37:17.793Z,14.55
2023-04-12T16:42:11.119Z,14.82
2023-04-12T16:47:04.784Z,14.63
2023-04-12T16:51:59.636Z,14.73
2023-04-12T16:56:57.021Z,14.67
2023-04-12T17:01:50.216Z,14.47
2023-04-12T17:06:46.107Z,14.46
2023-04-12T17:11:40.805Z,14.43
2023-04-12T17:16:37.048Z,14.23
2023-04-12T17:21:30.640Z,14.23
2023-04-12T17:26:26.110Z,13.96
2023-04-12T17:31:22.705Z,14.00
2023-04-12T17:36:17.733Z,13.86
2023-04-12T17:41:11.151Z,13.61
2023-04-12T17:46:05.900Z,13.33
2023-04-12T17:51:03.065Z,13.43
2023-04-12T17:55:58.719Z,13.41
2023-04-12T18:00:51.941Z,12.50
2023-04-12T18:05:46.560Z,13.46
2023-04-12T18:10:43.756Z,13.36
2023-04-12T18:15:39.290Z,13.31
2023-04-12T18:20:33.308Z,13.33
2023-04-12T18:25:26.761Z,13.24
2023-04-12T18:30:21.626Z,13.38
2023-04-12T18:35:17.094Z,11.99
2023-04-12T18:40:17.131Z,12.02
2023-04-12T18:45:13.969Z,12.90
2023-04-12T18:50:10.158Z,13.48
2023-04-12T18:55:06.152Z,12.81
2023-04-12T19:00:00.552Z,13.52
2023-04-12T19:04:53.827Z,13.11
2023-04-12T19:09:52.346Z,13.40
2023-04-12T19:14:45.724Z,13.27
2023-04-12T19:19:41.744Z,12.72
2023-04-12T19:24:35.367Z,13.27
2023-04-12T19:29:30.896Z,12.12
2023-04-12T19:34:24.335Z,12.81
2023-04-12T19:39:28.245Z,12.14
2023-04-12T19:44:25.319Z,12.99
2023-04-12T19:49:24.024Z,12.09
2023-04-12T19:54:18.938Z,11.84
2023-04-12T19:59:13.494Z,12.67
2023-04-12T20:04:06.939Z,11.98
2023-04-12T20:09:12.148Z,12.31
2023-04-12T20:14:12.249Z,12.29
2023-04-12T20:19:08.603Z,12.09
2023-04-12T20:24:09.483Z,12.03
2023-04-12T20:29:10.863Z,11.69
2023-04-12T20:34:04.185Z,12.05
2023-04-12T20:38:57.690Z,11.20
2023-04-12T20:43:53.783Z,11.90
2023-04-12T20:48:50.981Z,11.51
2023-04-12T20:53:45.706Z,11.01
2023-04-12T20:58:38.996Z,11.44
2023-04-12T21:03:34.005Z,11.05
2023-04-12T21:08:27.467Z,11.20
2023-04-12T21:13:22.048Z,11.63
2023-04-12T21:18:15.307Z,10.95
2023-04-12T21:23:10.034Z,11.53
2023-04-12T21:28:03.388Z,11.28
2023-04-12T21:32:58.626Z,11.16
2023-04-12T21:38:13.953Z,11.42
2023-04-12T21:43:12.260Z,11.33
2023-04-12T21:48:05.846Z,11.28
2023-04-12T21:52:59.174Z,11.25
2023-04-12T21:57:55.619Z,10.15
2023-04-12T22:02:50.471Z,10.33
2023-04-12T22:07:46.185Z,11.18
2023-04-12T22:12:39.932Z,11.22
2023-04-12T22:17:35.220Z,11.22
2023-04-12T22:22:30.065Z,11.11
2023-04-12T22:27:26.861Z,11.23
2023-04-12T22:32:22.621Z,11.21
2023-04-12T22:37:16.031Z,11.00
2023-04-12T22:42:11.732Z,10.48
2023-04-12T22:47:06.177Z,11.12
2023-04-12T22:51:59.678Z,10.88
2023-04-12T22:56:53.125Z,11.00
2023-04-12T23:01:50.885Z,10.88
2023-04-12T23:06:45.690Z,10.97
2023-04-12T23:11:42.692Z,10.92
2023-04-12T23:16:37.559Z,10.56
2023-04-12T23:21:32.165Z,10.84
2023-04-12T23:26:25.726Z,10.66
2023-04-12T23:31:18.862Z,10.72
2023-04-12T23:36:12.416Z,10.48
2023-04-12T23:41:09.098Z,10.25
2023-04-12T23:46:02.408Z,10.50
2023-04-12T23:50:55.590Z,10.44
2023-04-12T23:55:51.337Z,9.65
